Time;durP1;ratioP1;P1;durP2;ratioP2;P2;SDS_P1;SDS_P2;PMS_P1;PMS_P2;Temp;Humidity;BMP_temperature;BMP_pressure;BME280_temperature;BME280_humidity;BME280_pressure;Samples;Min_cycle;Max_cycle;Signal;HPM_P1;HPM_P2
2023/12/26 00:01:12;;;;;;;0.43;0.20;;;;;;;11.43;100.00;96831.63;5045890;28;20053;-77
2023/12/26 00:03:38;;;;;;;0.17;0.10;;;;;;;11.52;100.00;96832.28;5054346;28;20049;-77
2023/12/26 00:06:06;;;;;;;0.10;0.10;;;;;;;11.40;100.00;96822.25;5045929;28;21376;-77
2023/12/26 00:08:33;;;;;;;1.90;0.20;;;;;;;11.41;100.00;96813.00;5055340;28;20049;-77
2023/12/26 00:11:00;;;;;;;0.10;0.10;;;;;;;11.59;100.00;96822.47;5054194;28;20064;-77
2023/12/26 00:13:27;;;;;;;0.10;0.10;;;;;;;11.59;100.00;96805.41;5050038;28;20579;-77
2023/12/26 00:15:54;;;;;;;0.10;0.10;;;;;;;11.40;100.00;96807.91;5036121;28;20061;-76
2023/12/26 00:18:21;;;;;;;0.35;0.10;;;;;;;11.55;100.00;96799.88;5031026;28;20057;-76
2023/12/26 00:20:48;;;;;;;0.17;0.13;;;;;;;11.57;100.00;96799.53;5035003;28;20049;-77
2023/12/26 00:23:15;;;;;;;0.10;0.10;;;;;;;11.38;100.00;96796.63;5033464;28;20636;-80
2023/12/26 00:25:44;;;;;;;0.13;0.13;;;;;;;11.39;100.00;96796.28;5038747;28;20506;-76
2023/12/26 00:28:13;;;;;;;0.73;0.25;;;;;;;11.28;100.00;96806.78;5045172;28;20053;-78
2023/12/26 00:30:40;;;;;;;0.45;0.30;;;;;;;11.43;100.00;96797.19;5049244;28;20272;-76
2023/12/26 00:33:07;;;;;;;0.10;0.10;;;;;;;11.50;100.00;96783.84;5039532;28;20854;-76
2023/12/26 00:35:34;;;;;;;0.20;0.15;;;;;;;11.57;100.00;96792.19;5060076;28;20049;-78
2023/12/26 00:38:01;;;;;;;0.32;0.20;;;;;;;11.28;100.00;96778.91;5045937;28;20451;-76
2023/12/26 00:40:28;;;;;;;0.73;0.20;;;;;;;11.28;100.00;96809.50;5054735;28;20052;-78
2023/12/26 00:42:55;;;;;;;0.20;0.20;;;;;;;11.19;100.00;96808.84;5037053;28;20059;-76
2023/12/26 00:45:22;;;;;;;0.40;0.22;;;;;;;11.32;100.00;96814.25;5036068;28;20447;-78
2023/12/26 00:47:49;;;;;;;0.10;0.10;;;;;;;11.29;100.00;96804.88;5047565;28;20366;-76
2023/12/26 00:50:16;;;;;;;0.25;0.25;;;;;;;11.31;100.00;96801.81;5034115;28;20056;-78
2023/12/26 00:52:44;;;;;;;0.25;0.20;;;;;;;11.13;100.00;96804.75;5030715;28;20041;-77
2023/12/26 00:55:10;;;;;;;0.40;0.30;;;;;;;11.22;100.00;96799.25;5044932;28;20057;-78
2023/12/26 00:57:37;;;;;;;0.60;0.30;;;;;;;11.14;100.00;96798.22;5040055;28;20096;-78
2023/12/26 01:00:05;;;;;;;0.57;0.20;;;;;;;11.10;100.00;96799.22;5038180;28;20538;-77
2023/12/26 01:02:33;;;;;;;0.20;0.20;;;;;;;11.07;100.00;96794.50;5039540;28;20036;-79
2023/12/26 01:05:00;;;;;;;0.63;0.30;;;;;;;11.12;100.00;96792.34;5032438;28;20112;-77
2023/12/26 01:07:27;;;;;;;0.40;0.20;;;;;;;11.06;100.00;96793.69;5038088;28;20071;-78
2023/12/26 01:09:54;;;;;;;0.40;0.20;;;;;;;11.08;100.00;96790.66;5021807;28;20105;-77
2023/12/26 01:12:21;;;;;;;1.10;0.25;;;;;;;11.11;100.00;96788.06;5021847;28;20061;-77
2023/12/26 01:14:48;;;;;;;0.20;0.20;;;;;;;11.04;100.00;96782.44;5041475;28;20110;-78
2023/12/26 01:17:15;;;;;;;0.75;0.30;;;;;;;11.04;100.00;96795.16;5036436;28;20748;-78
2023/12/26 01:19:42;;;;;;;0.73;0.40;;;;;;;11.10;100.00;96782.97;5009439;28;20048;-77
2023/12/26 01:22:09;;;;;;;1.27;0.20;;;;;;;11.05;100.00;96796.72;5048113;28;20612;-77
2023/12/26 01:24:35;;;;;;;0.20;0.20;;;;;;;11.10;100.00;96794.59;5019416;28;20097;-77
2023/12/26 01:27:02;;;;;;;0.40;0.22;;;;;;;11.14;100.00;96792.81;5045320;28;20100;-76
2023/12/26 01:29:29;;;;;;;0.40;0.30;;;;;;;11.15;100.00;96785.44;5024642;28;20049;-78
2023/12/26 01:31:56;;;;;;;0.32;0.20;;;;;;;11.19;100.00;96791.78;5047110;28;20065;-78
2023/12/26 01:34:23;;;;;;;0.40;0.30;;;;;;;11.13;100.00;96788.50;5041620;28;20108;-78
2023/12/26 01:36:50;;;;;;;0.32;0.20;;;;;;;11.11;100.00;96784.56;5004984;28;20049;-77
2023/12/26 01:39:17;;;;;;;0.20;0.20;;;;;;;11.16;100.00;96790.53;5033265;28;20096;-77
2023/12/26 01:41:45;;;;;;;1.00;0.30;;;;;;;11.13;100.00;96785.00;5025426;28;20559;-76
2023/12/26 01:44:12;;;;;;;0.30;0.28;;;;;;;11.11;100.00;96785.34;5045447;28;20526;-78
2023/12/26 01:46:40;;;;;;;0.30;0.20;;;;;;;11.11;100.00;96800.81;5046600;28;20065;-78
2023/12/26 01:49:07;;;;;;;0.30;0.20;;;;;;;11.14;100.00;96790.09;5043819;28;20128;-77
2023/12/26 01:51:36;;;;;;;0.60;0.25;;;;;;;11.16;100.00;96790.53;5049540;28;20071;-78
2023/12/26 01:54:03;;;;;;;0.40;0.30;;;;;;;11.26;100.00;96786.59;5013859;28;20049;-78
2023/12/26 01:56:30;;;;;;;0.52;0.28;;;;;;;11.33;100.00;96786.78;5020791;28;20116;-78
2023/12/26 01:58:57;;;;;;;0.85;0.30;;;;;;;11.14;100.00;96795.53;5012747;28;20136;-77
2023/12/26 02:01:24;;;;;;;1.85;0.40;;;;;;;11.20;100.00;96785.25;5054448;28;20056;-77
2023/12/26 02:03:54;;;;;;;1.80;0.30;;;;;;;11.20;100.00;96794.16;5046669;28;20531;-78
2023/12/26 02:06:21;;;;;;;0.35;0.30;;;;;;;11.32;100.00;96789.84;5054308;28;21487;-77
2023/12/26 02:08:49;;;;;;;0.77;0.30;;;;;;;11.18;100.00;96785.56;5023453;28;21433;-78
2023/12/26 02:11:16;;;;;;;0.38;0.22;;;;;;;11.06;100.00;96791.00;5039073;28;20077;-78
2023/12/26 02:13:43;;;;;;;0.40;0.32;;;;;;;11.21;100.00;96782.19;5044731;28;20539;-79
2023/12/26 02:16:15;;;;;;;0.80;0.40;;;;;;;11.37;100.00;96785.00;5038933;28;20077;-79
2023/12/26 02:18:42;;;;;;;0.80;0.30;;;;;;;11.31;100.00;96783.63;5025233;28;20599;-79
2023/12/26 02:21:10;;;;;;;0.95;0.40;;;;;;;11.40;100.00;96781.63;5030649;28;20095;-78
2023/12/26 02:23:39;;;;;;;0.30;0.30;;;;;;;11.27;100.00;96764.59;5026581;28;20049;-79
2023/12/26 02:26:07;;;;;;;0.55;0.40;;;;;;;11.33;100.00;96770.53;5014905;28;20046;-79
2023/12/26 02:28:36;;;;;;;0.90;0.30;;;;;;;11.33;100.00;96772.47;5044045;28;20041;-79
2023/12/26 02:31:05;;;;;;;0.80;0.32;;;;;;;11.42;100.00;96760.38;5044255;28;20131;-78
2023/12/26 02:33:34;;;;;;;2.55;0.43;;;;;;;11.26;100.00;96749.44;5031346;28;20046;-78
2023/12/26 02:36:01;;;;;;;0.30;0.20;;;;;;;11.23;100.00;96763.66;5044931;28;20113;-77
2023/12/26 02:38:28;;;;;;;0.20;0.20;;;;;;;11.45;100.00;96764.31;5041726;28;20073;-79
2023/12/26 02:40:55;;;;;;;0.50;0.40;;;;;;;11.24;100.00;96754.44;5040770;28;20053;-81
2023/12/26 02:43:22;;;;;;;1.33;0.50;;;;;;;11.34;100.00;96742.31;5058168;28;20358;-81
2023/12/26 02:45:49;;;;;;;0.60;0.30;;;;;;;11.27;100.00;96742.91;5054091;28;20069;-80
2023/12/26 02:48:16;;;;;;;0.63;0.50;;;;;;;11.27;100.00;96753.75;5028665;28;20048;-80
2023/12/26 02:50:45;;;;;;;1.08;0.43;;;;;;;11.23;100.00;96749.31;5050286;28;20128;-78
2023/12/26 02:53:12;;;;;;;0.95;0.45;;;;;;;11.24;100.00;96743.59;5039807;28;20324;-79
2023/12/26 02:55:38;;;;;;;0.82;0.40;;;;;;;11.24;100.00;96740.09;5053966;28;20041;-79
2023/12/26 02:58:05;;;;;;;0.75;0.50;;;;;;;11.31;100.00;96747.63;5053386;28;20080;-75
2023/12/26 03:00:32;;;;;;;0.40;0.40;;;;;;;11.36;100.00;96739.25;5056976;28;20095;-78
2023/12/26 03:02:59;;;;;;;0.45;0.40;;;;;;;11.34;100.00;96727.97;5038572;28;20052;-76
2023/12/26 03:05:27;;;;;;;0.93;0.47;;;;;;;11.18;100.00;96725.97;5019501;28;20045;-78
2023/12/26 03:07:54;;;;;;;0.43;0.40;;;;;;;11.20;100.00;96731.84;5054632;28;20745;-78
2023/12/26 03:10:21;;;;;;;1.25;0.65;;;;;;;11.15;100.00;96732.06;5052380;28;20292;-79
2023/12/26 03:12:47;;;;;;;0.70;0.50;;;;;;;11.24;100.00;96740.88;5031816;28;20571;-78
2023/12/26 03:15:16;;;;;;;0.80;0.40;;;;;;;11.33;100.00;96737.25;5037273;28;20048;-78
2023/12/26 03:17:43;;;;;;;1.73;0.40;;;;;;;11.18;100.00;96734.09;5044229;28;20041;-78
2023/12/26 03:20:10;;;;;;;0.47;0.40;;;;;;;11.23;100.00;96733.88;5022664;28;20075;-76
2023/12/26 03:22:41;;;;;;;0.93;0.40;;;;;;;11.22;100.00;96735.00;5044321;28;20109;-77
2023/12/26 03:25:08;;;;;;;0.50;0.30;;;;;;;11.19;100.00;96730.28;5038966;28;20478;-77
2023/12/26 03:27:35;;;;;;;2.47;0.50;;;;;;;11.19;100.00;96738.41;5028536;28;20100;-77
2023/12/26 03:30:01;;;;;;;1.95;0.50;;;;;;;11.30;100.00;96730.59;5046910;28;20076;-79
2023/12/26 03:32:28;;;;;;;0.80;0.50;;;;;;;11.14;100.00;96740.53;5047305;28;20068;-78
2023/12/26 03:34:56;;;;;;;0.73;0.40;;;;;;;11.23;100.00;96733.06;5053746;28;20774;-76
2023/12/26 03:37:22;;;;;;;0.75;0.50;;;;;;;11.19;100.00;96735.69;5059557;28;20056;-76
2023/12/26 03:39:49;;;;;;;0.57;0.40;;;;;;;10.94;100.00;96722.50;5057099;28;20073;-77
2023/12/26 03:42:16;;;;;;;3.70;0.40;;;;;;;11.02;100.00;96721.59;5045318;28;20050;-77
2023/12/26 03:44:47;;;;;;;0.50;0.30;;;;;;;11.05;100.00;96720.91;5061508;28;20060;-79
2023/12/26 03:47:14;;;;;;;0.55;0.30;;;;;;;10.94;100.00;96715.16;5053583;28;20419;-77
2023/12/26 03:49:42;;;;;;;0.98;0.45;;;;;;;11.01;100.00;96712.69;5055421;28;20049;-78
2023/12/26 03:52:09;;;;;;;0.88;0.40;;;;;;;11.24;100.00;96724.63;5041203;28;20223;-79
2023/12/26 03:54:36;;;;;;;0.50;0.32;;;;;;;11.11;100.00;96728.47;5038653;28;20124;-79
2023/12/26 03:57:03;;;;;;;0.40;0.40;;;;;;;10.97;100.00;96719.88;5054262;28;20056;-80
2023/12/26 03:59:31;;;;;;;0.38;0.30;;;;;;;10.95;100.00;96716.75;5057284;28;20049;-78
2023/12/26 04:01:57;;;;;;;1.67;0.40;;;;;;;10.96;100.00;96726.44;5058583;28;20045;-78
2023/12/26 04:04:24;;;;;;;0.38;0.30;;;;;;;10.95;100.00;96724.06;5061233;28;20088;-78
2023/12/26 04:06:52;;;;;;;2.70;0.40;;;;;;;11.13;100.00;96728.13;5028105;28;20049;-78
2023/12/26 04:09:19;;;;;;;0.43;0.30;;;;;;;10.98;100.00;96728.81;5038819;28;20056;-78
2023/12/26 04:11:47;;;;;;;0.40;0.30;;;;;;;11.07;100.00;96727.56;5049887;28;20741;-79
2023/12/26 04:14:14;;;;;;;0.65;0.30;;;;;;;11.18;100.00;96739.53;5050487;28;20507;-79
2023/12/26 04:16:41;;;;;;;0.57;0.30;;;;;;;11.24;100.00;96742.78;5059003;28;20056;-78
2023/12/26 04:19:09;;;;;;;1.65;0.30;;;;;;;11.20;100.00;96737.25;5059441;28;20503;-78
2023/12/26 04:21:36;;;;;;;0.57;0.32;;;;;;;11.19;100.00;96741.13;5032344;28;20041;-79
2023/12/26 04:24:04;;;;;;;0.25;0.25;;;;;;;11.20;100.00;96737.25;5050402;28;20618;-78
2023/12/26 04:26:31;;;;;;;0.88;0.30;;;;;;;11.29;100.00;96750.69;5037428;28;20569;-79
2023/12/26 04:28:58;;;;;;;0.20;0.20;;;;;;;11.16;100.00;96754.53;5039202;28;20325;-77
2023/12/26 04:31:25;;;;;;;0.20;0.20;;;;;;;11.13;100.00;96747.88;5053414;28;20446;-79
2023/12/26 04:33:52;;;;;;;0.50;0.30;;;;;;;11.22;100.00;96745.84;5053552;28;20065;-79
2023/12/26 04:36:20;;;;;;;0.65;0.30;;;;;;;11.20;100.00;96742.66;5051771;28;20607;-79
2023/12/26 04:38:47;;;;;;;0.25;0.22;;;;;;;11.28;100.00;96749.09;5053887;28;20067;-79
2023/12/26 04:41:13;;;;;;;1.35;0.25;;;;;;;11.31;100.00;96764.69;5056566;28;20455;-78
2023/12/26 04:43:40;;;;;;;0.20;0.20;;;;;;;11.31;100.00;96747.63;5040170;28;20119;-78
2023/12/26 04:46:07;;;;;;;0.30;0.20;;;;;;;11.35;100.00;96765.59;5051524;28;20037;-77
2023/12/26 04:48:34;;;;;;;0.10;0.10;;;;;;;11.31;100.00;96751.13;5040985;28;20048;-79
2023/12/26 04:51:02;;;;;;;1.33;0.20;;;;;;;11.30;100.00;96759.59;5061012;28;20048;-78
2023/12/26 04:53:29;;;;;;;0.35;0.20;;;;;;;11.22;100.00;96764.81;5050793;28;20049;-79
2023/12/26 04:55:56;;;;;;;0.30;0.20;;;;;;;11.33;100.00;96753.50;5048675;28;20048;-78
2023/12/26 04:58:23;;;;;;;0.25;0.10;;;;;;;11.31;100.00;96769.28;5025732;28;20678;-79
2023/12/26 05:00:49;;;;;;;0.10;0.10;;;;;;;11.31;100.00;96774.72;5045952;28;20050;-80
2023/12/26 05:03:16;;;;;;;0.40;0.20;;;;;;;11.31;100.00;96775.50;5052885;28;20093;-79
2023/12/26 05:05:44;;;;;;;0.28;0.20;;;;;;;11.38;100.00;96748.63;5054668;28;20036;-78
2023/12/26 05:08:10;;;;;;;0.45;0.15;;;;;;;11.32;100.00;96771.69;5035660;28;20116;-79
2023/12/26 05:10:37;;;;;;;0.15;0.10;;;;;;;11.34;100.00;96776.75;5066362;28;20056;-79
2023/12/26 05:13:04;;;;;;;0.10;0.10;;;;;;;11.34;100.00;96777.56;5049449;28;20084;-78
2023/12/26 05:15:31;;;;;;;0.10;0.10;;;;;;;11.43;100.00;96778.22;5051652;28;20063;-78
2023/12/26 05:17:58;;;;;;;0.35;0.20;;;;;;;11.27;100.00;96783.56;5049240;28;20064;-78
2023/12/26 05:20:26;;;;;;;0.20;0.20;;;;;;;11.37;100.00;96779.59;5026515;28;20049;-79
2023/12/26 05:22:57;;;;;;;0.10;0.10;;;;;;;11.39;100.00;96781.94;5051379;28;20060;-79
2023/12/26 05:25:26;;;;;;;0.10;0.10;;;;;;;11.50;100.00;96791.19;5042215;28;20044;-79
2023/12/26 05:27:53;;;;;;;1.23;0.10;;;;;;;11.41;100.00;96779.69;5051045;28;20052;-79
2023/12/26 05:30:20;;;;;;;0.30;0.10;;;;;;;11.46;100.00;96785.66;5050336;28;20445;-79
2023/12/26 05:32:47;;;;;;;0.10;0.10;;;;;;;11.39;100.00;96771.91;5044267;28;20048;-79
2023/12/26 05:35:17;;;;;;;0.00;0.00;;;;;;;11.39;100.00;96800.91;5023894;28;20045;-79
2023/12/26 05:37:45;;;;;;;0.10;0.10;;;;;;;11.36;100.00;96793.44;5059947;28;20041;-79
2023/12/26 05:40:12;;;;;;;0.30;0.08;;;;;;;11.50;100.00;96780.34;5062596;28;20052;-80
2023/12/26 05:42:39;;;;;;;0.10;0.10;;;;;;;11.56;100.00;96804.16;5046376;28;20055;-80
2023/12/26 05:45:06;;;;;;;0.00;0.00;;;;;;;11.33;100.00;96800.34;5051621;28;20089;-79
2023/12/26 05:47:33;;;;;;;0.10;0.10;;;;;;;11.37;100.00;96809.38;5057807;28;20056;-79
2023/12/26 05:50:00;;;;;;;0.00;0.00;;;;;;;11.42;100.00;96835.47;5057292;28;20045;-79
2023/12/26 05:52:27;;;;;;;0.10;0.10;;;;;;;11.35;100.00;96806.22;5043426;28;20033;-78
2023/12/26 05:54:55;;;;;;;0.00;0.00;;;;;;;11.09;100.00;96797.66;5053592;28;20535;-79
2023/12/26 05:57:22;;;;;;;0.00;0.00;;;;;;;11.21;100.00;96797.66;5055935;28;20104;-79
2023/12/26 05:59:49;;;;;;;0.10;0.10;;;;;;;11.35;100.00;96813.56;5042338;28;20061;-79
2023/12/26 06:02:16;;;;;;;0.10;0.10;;;;;;;11.16;100.00;96800.59;5052866;28;20136;-79
2023/12/26 06:04:43;;;;;;;0.05;0.05;;;;;;;11.26;100.00;96817.19;5050334;28;20041;-79
2023/12/26 06:07:11;;;;;;;0.10;0.00;;;;;;;11.08;100.00;96807.69;5048592;28;20098;-79
2023/12/26 06:09:38;;;;;;;0.10;0.10;;;;;;;11.19;100.00;96821.59;5052308;28;20067;-79
2023/12/26 06:12:06;;;;;;;0.10;0.10;;;;;;;11.15;100.00;96837.72;5049303;28;20049;-78
2023/12/26 06:14:35;;;;;;;0.10;0.10;;;;;;;11.12;100.00;96843.78;5050499;28;20108;-78
2023/12/26 06:17:02;;;;;;;1.35;0.10;;;;;;;11.15;100.00;96843.13;5058513;28;20120;-78
2023/12/26 06:19:29;;;;;;;0.52;0.10;;;;;;;11.11;100.00;96838.72;5047189;28;20029;-78
2023/12/26 06:21:56;;;;;;;0.22;0.00;;;;;;;11.10;100.00;96851.47;5076614;28;20048;-78
2023/12/26 06:24:24;;;;;;;0.50;0.10;;;;;;;11.13;100.00;96833.75;5042785;28;20049;-80
2023/12/26 06:26:52;;;;;;;0.10;0.10;;;;;;;11.09;100.00;96841.78;5038420;28;20045;-79
2023/12/26 06:29:18;;;;;;;0.00;0.00;;;;;;;11.04;100.00;96846.63;5056574;28;20060;-79
2023/12/26 06:31:45;;;;;;;0.05;0.05;;;;;;;11.11;100.00;96847.66;5025569;28;21153;-79
2023/12/26 06:34:12;;;;;;;0.10;0.10;;;;;;;11.15;100.00;96853.16;5030402;28;20041;-79
2023/12/26 06:36:39;;;;;;;0.10;0.10;;;;;;;11.09;100.00;96857.25;5040776;28;20099;-78
2023/12/26 06:39:06;;;;;;;0.47;0.10;;;;;;;11.13;100.00;96850.00;5050692;28;20515;-75
2023/12/26 06:41:33;;;;;;;0.10;0.10;;;;;;;11.07;100.00;96846.72;5053981;28;20041;-76
2023/12/26 06:44:00;;;;;;;1.40;0.20;;;;;;;10.93;100.00;96856.31;5045913;28;20129;-76
2023/12/26 06:46:27;;;;;;;0.00;0.00;;;;;;;10.89;100.00;96839.16;5028178;28;20044;-77
2023/12/26 06:48:54;;;;;;;0.10;0.10;;;;;;;10.94;100.00;96852.47;5040501;28;20045;-79
2023/12/26 06:51:21;;;;;;;0.32;0.10;;;;;;;10.91;100.00;96862.06;5050268;28;20056;-78
2023/12/26 06:53:48;;;;;;;2.17;0.10;;;;;;;10.93;100.00;96856.31;5036261;28;20370;-77
2023/12/26 06:56:15;;;;;;;0.10;0.03;;;;;;;10.82;100.00;96871.38;5045586;28;20339;-78
2023/12/26 06:58:42;;;;;;;0.45;0.20;;;;;;;10.83;100.00;96881.91;5029758;28;20210;-82
2023/12/26 07:01:10;;;;;;;0.13;0.13;;;;;;;10.80;100.00;96879.06;5025129;28;20080;-77
2023/12/26 07:03:36;;;;;;;1.55;0.10;;;;;;;11.10;100.00;96894.00;5050323;28;20037;-78
2023/12/26 07:06:04;;;;;;;0.20;0.10;;;;;;;11.07;100.00;96887.34;5040887;28;20052;-77
2023/12/26 07:08:31;;;;;;;0.13;0.10;;;;;;;11.10;100.00;96894.00;5035839;28;20311;-79
2023/12/26 07:10:58;;;;;;;0.52;0.10;;;;;;;11.13;100.00;96907.69;5049674;28;20703;-77
2023/12/26 07:13:25;;;;;;;0.10;0.10;;;;;;;11.00;100.00;96908.00;5033867;28;20634;-79
2023/12/26 07:15:52;;;;;;;0.10;0.10;;;;;;;11.03;100.00;96937.13;5047757;28;20060;-79
2023/12/26 07:18:19;;;;;;;1.10;0.00;;;;;;;11.04;100.00;96917.84;5055374;28;20041;-79
2023/12/26 07:20:46;;;;;;;1.25;0.22;;;;;;;11.08;100.00;96926.06;5039228;28;20045;-78
2023/12/26 07:23:13;;;;;;;1.33;0.20;;;;;;;11.19;100.00;96947.00;5055042;28;20060;-78
2023/12/26 07:25:41;;;;;;;0.10;0.10;;;;;;;11.06;100.00;96944.59;5037586;28;20557;-77
2023/12/26 07:28:08;;;;;;;0.28;0.10;;;;;;;11.04;100.00;96950.34;5038032;28;20249;-77
2023/12/26 07:30:34;;;;;;;1.25;0.17;;;;;;;10.96;100.00;96945.81;5051711;28;20052;-77
2023/12/26 07:33:02;;;;;;;1.15;0.20;;;;;;;10.98;100.00;96938.13;5051655;28;20056;-77
2023/12/26 07:35:30;;;;;;;2.67;0.22;;;;;;;11.04;100.00;96960.38;5043532;28;20041;-78
2023/12/26 07:37:57;;;;;;;0.88;0.10;;;;;;;10.95;100.00;96974.00;5052044;28;20903;-76
2023/12/26 07:40:24;;;;;;;0.70;0.20;;;;;;;10.91;100.00;96969.59;5039378;28;20527;-77
2023/12/26 07:42:51;;;;;;;0.20;0.10;;;;;;;11.05;100.00;96962.75;5050142;28;20294;-77
2023/12/26 07:45:23;;;;;;;1.45;0.17;;;;;;;10.99;100.00;96964.09;5050094;28;20095;-78
2023/12/26 07:47:50;;;;;;;2.50;0.13;;;;;;;11.06;100.00;96972.47;5049011;28;20065;-77
2023/12/26 07:50:17;;;;;;;0.10;0.10;;;;;;;11.19;100.00;96979.50;5047999;28;20426;-77
2023/12/26 07:52:44;;;;;;;0.43;0.20;;;;;;;11.16;100.00;96973.94;5044563;28;20049;-77
2023/12/26 07:55:14;;;;;;;0.30;0.20;;;;;;;10.99;100.00;96974.94;5022614;28;20056;-77
2023/12/26 07:57:44;;;;;;;0.50;0.20;;;;;;;10.97;100.00;96971.75;5044278;28;20049;-78
2023/12/26 08:00:11;;;;;;;0.20;0.10;;;;;;;10.95;100.00;96968.56;5045155;28;20048;-78
2023/12/26 08:02:40;;;;;;;0.10;0.10;;;;;;;11.03;100.00;96980.44;5046675;28;20034;-76
2023/12/26 08:05:09;;;;;;;0.17;0.13;;;;;;;10.98;100.00;96977.94;5048400;28;20432;-77
2023/12/26 08:07:36;;;;;;;0.10;0.10;;;;;;;11.09;100.00;96981.84;5056595;28;20048;-77
2023/12/26 08:10:03;;;;;;;0.20;0.10;;;;;;;10.97;100.00;96981.81;5050544;28;20509;-77
2023/12/26 08:12:30;;;;;;;3.08;0.20;;;;;;;11.09;100.00;96977.22;5059224;28;20045;-76
2023/12/26 08:14:57;;;;;;;1.30;0.20;;;;;;;11.05;100.00;96989.03;5058403;28;20083;-77
2023/12/26 08:17:24;;;;;;;0.25;0.10;;;;;;;10.98;100.00;97013.16;5059054;28;20044;-78
2023/12/26 08:19:51;;;;;;;0.65;0.20;;;;;;;11.09;100.00;97003.50;5059796;28;20138;-77
2023/12/26 08:22:17;;;;;;;0.10;0.10;;;;;;;10.98;100.00;97005.84;5058182;28;20049;-78
2023/12/26 08:24:44;;;;;;;0.38;0.17;;;;;;;11.07;100.00;97013.88;5045379;28;20101;-76
2023/12/26 08:27:11;;;;;;;0.65;0.10;;;;;;;11.10;100.00;97019.41;5054655;28;20052;-77
2023/12/26 08:29:38;;;;;;;0.43;0.30;;;;;;;11.16;100.00;97017.28;5045243;28;20049;-77
2023/12/26 08:32:06;;;;;;;0.55;0.20;;;;;;;11.08;100.00;97020.88;5051301;28;20132;-79
2023/12/26 08:34:33;;;;;;;0.25;0.20;;;;;;;11.17;100.00;97045.97;5049380;28;20064;-76
2023/12/26 08:36:59;;;;;;;0.10;0.10;;;;;;;11.00;100.00;97044.19;5050062;28;20108;-77
2023/12/26 08:39:26;;;;;;;0.20;0.17;;;;;;;11.23;100.00;97050.03;5038675;28;20148;-77
2023/12/26 08:41:53;;;;;;;0.10;0.10;;;;;;;11.25;100.00;97062.13;5049411;28;20059;-77
2023/12/26 08:44:20;;;;;;;0.30;0.20;;;;;;;11.15;100.00;97059.03;5066729;28;20047;-76
2023/12/26 08:46:50;;;;;;;0.40;0.22;;;;;;;11.06;100.00;97061.84;5052177;28;20074;-78
2023/12/26 08:49:17;;;;;;;0.25;0.20;;;;;;;11.22;100.00;97059.31;5043952;28;20071;-78
2023/12/26 08:51:44;;;;;;;0.40;0.10;;;;;;;11.29;100.00;97062.28;5044396;28;20041;-77
2023/12/26 08:54:11;;;;;;;0.80;0.30;;;;;;;11.18;100.00;97078.16;5044083;28;20588;-77
2023/12/26 08:56:41;;;;;;;0.82;0.20;;;;;;;11.31;100.00;97078.19;5047171;28;20037;-77
2023/12/26 08:59:08;;;;;;;0.10;0.10;;;;;;;11.12;100.00;97070.56;5050853;28;20060;-75
2023/12/26 09:01:35;;;;;;;0.20;0.20;;;;;;;11.30;100.00;97080.13;5059137;28;20040;-76
2023/12/26 09:04:03;;;;;;;0.52;0.10;;;;;;;11.32;100.00;97077.06;5055493;28;20080;-79
2023/12/26 09:06:30;;;;;;;0.88;0.17;;;;;;;11.32;100.00;97090.63;5042848;28;20052;-78
2023/12/26 09:08:58;;;;;;;0.45;0.20;;;;;;;11.19;100.00;97101.41;5054480;28;20051;-76
2023/12/26 09:11:24;;;;;;;0.20;0.20;;;;;;;11.18;100.00;97101.72;5031730;28;20048;-79
2023/12/26 09:13:52;;;;;;;2.15;0.20;;;;;;;11.19;100.00;97095.19;5051248;28;20053;-77
2023/12/26 09:16:19;;;;;;;0.75;0.13;;;;;;;11.39;100.00;97080.03;5053411;28;20128;-77
2023/12/26 09:18:47;;;;;;;1.00;0.13;;;;;;;11.17;100.00;97097.44;5045610;28;20470;-78
2023/12/26 09:21:14;;;;;;;0.47;0.30;;;;;;;11.40;100.00;97103.31;5040743;28;20106;-76
2023/12/26 09:23:41;;;;;;;0.45;0.20;;;;;;;11.51;100.00;97126.16;5022819;28;20049;-77
2023/12/26 09:26:08;;;;;;;0.50;0.20;;;;;;;11.22;100.00;97117.00;5035323;28;20036;-75
2023/12/26 09:28:38;;;;;;;0.52;0.30;;;;;;;11.03;100.00;97122.09;5041933;28;20053;-79
2023/12/26 09:31:04;;;;;;;0.45;0.20;;;;;;;11.36;100.00;97127.56;5045458;28;20496;-77
2023/12/26 09:33:31;;;;;;;0.52;0.20;;;;;;;10.94;100.00;97134.88;5041383;28;20091;-79
2023/12/26 09:35:58;;;;;;;0.22;0.20;;;;;;;11.12;100.00;97127.44;5045169;28;20086;-78
2023/12/26 09:38:25;;;;;;;1.10;0.30;;;;;;;11.17;100.00;97143.50;5045966;28;20129;-78
2023/12/26 09:40:52;;;;;;;0.35;0.20;;;;;;;11.11;100.00;97136.69;5045238;28;20060;-78
2023/12/26 09:43:19;;;;;;;0.95;0.30;;;;;;;11.03;100.00;97160.00;5043674;28;20056;-78
2023/12/26 09:45:46;;;;;;;0.50;0.20;;;;;;;10.79;100.00;97153.66;5047528;28;20079;-77
2023/12/26 09:48:13;;;;;;;0.93;0.40;;;;;;;10.76;100.00;97157.81;5020832;28;20053;-77
2023/12/26 09:50:40;;;;;;;1.75;0.30;;;;;;;10.59;100.00;97163.28;5049166;28;20033;-77
2023/12/26 09:53:08;;;;;;;0.63;0.30;;;;;;;10.66;100.00;97162.78;5031665;28;20048;-77
2023/12/26 09:55:35;;;;;;;0.40;0.20;;;;;;;10.50;100.00;97182.25;5049017;28;20106;-78
2023/12/26 09:58:02;;;;;;;1.90;0.22;;;;;;;10.35;100.00;97184.75;5049427;28;20044;-76
2023/12/26 10:00:29;;;;;;;0.82;0.17;;;;;;;10.39;100.00;97185.66;5051984;28;20048;-78
2023/12/26 10:02:57;;;;;;;0.77;0.30;;;;;;;10.75;100.00;97183.28;5050760;28;20052;-78
2023/12/26 10:05:25;;;;;;;0.40;0.20;;;;;;;10.30;100.00;97166.75;5049809;28;20477;-78
2023/12/26 10:07:53;;;;;;;1.08;0.30;;;;;;;10.39;100.00;97177.56;5045982;28;20056;-77
2023/12/26 10:10:20;;;;;;;1.02;0.32;;;;;;;10.42;100.00;97176.91;5043584;28;20124;-77
2023/12/26 10:12:48;;;;;;;0.77;0.35;;;;;;;10.43;100.00;97168.44;5046449;28;20045;-76
2023/12/26 10:15:16;;;;;;;0.88;0.20;;;;;;;10.47;100.00;97168.59;5036132;28;20038;-75
2023/12/26 10:17:43;;;;;;;1.05;0.43;;;;;;;10.57;100.00;97185.28;5040334;28;20439;-77
2023/12/26 10:20:15;;;;;;;0.65;0.30;;;;;;;10.53;100.00;97184.31;5040091;28;20048;-77
2023/12/26 10:22:43;;;;;;;0.47;0.20;;;;;;;10.40;100.00;97179.91;5048739;28;20706;-78
2023/12/26 10:25:12;;;;;;;2.58;0.20;;;;;;;10.48;100.00;97191.81;5041593;28;20733;-78
2023/12/26 10:27:40;;;;;;;1.23;0.40;;;;;;;10.47;100.00;97199.19;5045105;28;20132;-78
2023/12/26 10:30:07;;;;;;;0.70;0.20;;;;;;;10.53;100.00;97195.16;5042057;28;20045;-77
2023/12/26 10:32:35;;;;;;;0.28;0.20;;;;;;;10.49;100.00;97196.94;5041375;28;20057;-78
2023/12/26 10:35:14;;;;;;;0.55;0.25;;;;;;;10.52;100.00;97196.28;5038365;28;20064;-78
2023/12/26 10:37:42;;;;;;;0.65;0.20;;;;;;;10.68;100.00;97193.03;5035433;28;20577;-78
2023/12/26 10:40:09;;;;;;;0.98;0.30;;;;;;;10.52;100.00;97212.53;5063533;28;20100;-78
2023/12/26 10:42:39;;;;;;;0.90;0.20;;;;;;;10.60;100.00;97202.78;5048648;28;20120;-77
2023/12/26 10:45:08;;;;;;;0.20;0.15;;;;;;;10.50;100.00;97206.63;5041685;28;20064;-78
2023/12/26 10:47:38;;;;;;;0.60;0.30;;;;;;;10.63;100.00;97219.16;5038095;28;20050;-77
2023/12/26 10:50:08;;;;;;;1.08;0.32;;;;;;;10.56;100.00;97223.47;5037622;28;20049;-76
2023/12/26 10:52:40;;;;;;;2.85;0.25;;;;;;;10.68;100.00;97226.31;5021124;28;20049;-78
2023/12/26 10:55:08;;;;;;;0.43;0.20;;;;;;;10.54;100.00;97228.44;5044835;28;20129;-78
2023/12/26 10:57:35;;;;;;;0.60;0.25;;;;;;;10.73;100.00;97228.84;5045981;28;20053;-79
2023/12/26 11:00:49;;;;;;;0.38;0.20;;;;;;;10.77;100.00;97231.66;5052844;28;20081;-78
2023/12/26 13:53:43;;;;;;;2.45;1.05;;;;;;;9.15;100.00;97390.09;5024539;28;20072;-78
2023/12/26 13:56:48;;;;;;;2.22;1.05;;;;;;;9.22;100.00;97396.63;5022296;28;20072;-77
2023/12/26 13:59:52;;;;;;;5.82;1.08;;;;;;;9.27;100.00;97390.28;5044257;28;20656;-77
2023/12/26 14:02:19;;;;;;;2.08;0.70;;;;;;;9.15;100.00;97398.19;5036409;28;20489;-77
2023/12/26 14:04:46;;;;;;;3.38;1.00;;;;;;;9.33;100.00;97407.97;5026761;28;20061;-79
2023/12/26 14:07:55;;;;;;;4.72;1.02;;;;;;;9.36;100.00;97397.34;5033015;28;20431;-79
2023/12/26 14:10:59;;;;;;;3.33;0.52;;;;;;;9.29;100.00;97415.09;5031523;28;20049;-80
2023/12/26 14:13:26;;;;;;;1.65;0.60;;;;;;;9.33;100.00;97408.75;5018868;28;20623;-80
2023/12/26 14:15:53;;;;;;;2.97;1.10;;;;;;;9.28;100.00;97403.50;5023455;28;20042;-78
2023/12/26 14:18:57;;;;;;;2.95;0.90;;;;;;;9.22;100.00;97412.03;5031715;28;20128;-79
2023/12/26 14:22:02;;;;;;;7.97;1.30;;;;;;;9.19;100.00;97409.94;5027008;28;20436;-79